»·PEaware :: N444FG KSNA-KBLH

N444FG :: KSNA-KBLH

FLIGHT INFORMATION

Flight Status: Arrived
Operator: Privately registered:
United States
More flights under this callsign
Pilot: Bill F. (18685)
Aircraft: PIPER PA-28R-201 ARROW
(P28R)
More flights by this aircraft type
Origin: KSNA John Wayne-Orange Co
United States
Destination: KBLH Blythe
United States
More flights between these airports :: More routes between these airports
Route: +
File this flight plan on PilotEdge
Remarks:
Altitude:
(Current/Filed)
0ft
Speed:
(Current/Filed)
0kts
Departed: 02-Jul-18 09:17 PM
Arrived: 02-Jul-18 10:33 PM
Distance/Time
Traveled:
154nm/1:16
Distance/Time
To Go:
Arrived

Flight Plot

Page will automatically refresh every two minutes.

Flight plan parsing failed; only flown route is shown


Map Options




Map Legend


Flown Route
Filed Route
Departure Airport
Arrival Airport
Navaid (VOR, NDB)
Fix

Horizontal Profiles

Position Reports

Time Latitude Longitude Heading Altitude Ground
Speed
02-Jul-18 21:06 33.667729 -117.870474 220 59ft 0kts
02-Jul-18 21:07 33.667729 -117.870474 220 59ft 0kts
02-Jul-18 21:08 33.667709 -117.870632 290 59ft 8kts
02-Jul-18 21:09 33.668069 -117.871173 311 59ft 0kts
02-Jul-18 21:10 33.670413 -117.869585 40 59ft 33kts
02-Jul-18 21:11 33.673336 -117.867623 37 59ft 0kts
02-Jul-18 21:12 33.673336 -117.867623 37 59ft 0kts
02-Jul-18 21:13 33.673336 -117.867623 37 59ft 0kts
02-Jul-18 21:14 33.673336 -117.867623 37 59ft 0kts
02-Jul-18 21:15 33.678912 -117.864052 27 59ft 27kts
02-Jul-18 21:16 33.679961 -117.863619 299 59ft 0kts
02-Jul-18 21:17 33.679961 -117.863619 299 59ft 0kts
02-Jul-18 21:18 33.678167 -117.865416 206 59ft 61kts
02-Jul-18 21:19 33.663537 -117.858753 89 1219ft 92kts
02-Jul-18 21:20 33.662711 -117.827152 84 2298ft 91kts
02-Jul-18 21:21 33.662635 -117.796090 95 3298ft 94kts
02-Jul-18 21:22 33.658463 -117.765661 109 4367ft 93kts
02-Jul-18 21:23 33.650174 -117.735558 103 5365ft 95kts
02-Jul-18 21:24 33.652779 -117.703670 92 6259ft 101kts
02-Jul-18 21:25 33.649546 -117.670792 97 7155ft 100kts
02-Jul-18 21:26 33.645138 -117.637432 97 7957ft 103kts
02-Jul-18 21:27 33.639961 -117.599709 98 8349ft 122kts
02-Jul-18 21:28 33.634425 -117.559313 98 8780ft 123kts
02-Jul-18 21:29 33.628674 -117.517294 98 9002ft 131kts
02-Jul-18 21:30 33.622673 -117.473536 98 9162ft 133kts
02-Jul-18 21:31 33.616623 -117.429475 98 9310ft 133kts
02-Jul-18 21:32 33.610572 -117.385517 98 9451ft 133kts
02-Jul-18 21:33 33.604514 -117.341622 99 9587ft 134kts
02-Jul-18 21:34 33.598473 -117.297595 98 9712ft 134kts
02-Jul-18 21:35 33.592742 -117.253434 98 9829ft 134kts
02-Jul-18 21:36 33.586747 -117.209239 98 9938ft 134kts
02-Jul-18 21:37 33.580617 -117.164976 99 10040ft 134kts
02-Jul-18 21:38 33.576107 -117.120574 86 10116ft 135kts
02-Jul-18 21:39 33.578692 -117.075971 84 10207ft 135kts
02-Jul-18 21:40 33.581346 -117.031400 84 10276ft 134kts
02-Jul-18 21:41 33.583989 -116.986893 84 10318ft 133kts
02-Jul-18 21:42 33.586631 -116.942058 84 10247ft 135kts
02-Jul-18 21:43 33.589260 -116.897182 85 10191ft 135kts
02-Jul-18 21:44 33.591858 -116.852362 85 10116ft 134kts
02-Jul-18 21:45 33.594441 -116.807544 85 10040ft 134kts
02-Jul-18 21:46 33.597002 -116.762933 85 9968ft 134kts
02-Jul-18 21:47 33.599559 -116.718170 85 9928ft 134kts
02-Jul-18 21:48 33.602143 -116.672512 85 9853ft 138kts
02-Jul-18 21:49 33.604772 -116.625643 85 9692ft 141kts
02-Jul-18 21:50 33.607396 -116.578690 85 9573ft 141kts
02-Jul-18 21:51 33.609999 -116.531818 85 9456ft 141kts
02-Jul-18 21:52 33.612598 -116.484693 85 9340ft 141kts
02-Jul-18 21:53 33.615182 -116.437512 85 9231ft 142kts
02-Jul-18 21:54 33.617762 -116.390077 85 9128ft 142kts
02-Jul-18 21:55 33.620314 -116.342803 86 9036ft 142kts
02-Jul-18 21:55 33.622433 -116.303330 86 8964ft 142kts
02-Jul-18 21:56 33.624955 -116.256014 86 8880ft 142kts
02-Jul-18 21:57 33.627455 -116.208764 86 8799ft 142kts
02-Jul-18 22:00 33.628350 -116.064792 90 8222ft 146kts
02-Jul-18 22:01 33.627465 -116.014885 90 7853ft 149kts
02-Jul-18 22:02 33.626566 -115.965199 90 7558ft 148kts
02-Jul-18 22:03 33.625651 -115.915682 90 7270ft 148kts
02-Jul-18 22:04 33.624722 -115.866454 90 6995ft 147kts
02-Jul-18 22:05 33.623732 -115.817324 89 6780ft 143kts
02-Jul-18 22:06 33.622820 -115.769324 89 6502ft 145kts
02-Jul-18 22:07 33.621843 -115.720342 89 6121ft 146kts
02-Jul-18 22:08 33.620849 -115.671679 89 5790ft 146kts
02-Jul-18 22:09 33.619833 -115.623107 89 5369ft 145kts
02-Jul-18 22:10 33.618805 -115.574579 88 4883ft 147kts
02-Jul-18 22:11 33.617774 -115.527066 88 4647ft 137kts
02-Jul-18 22:12 33.616824 -115.482725 88 4670ft 132kts
02-Jul-18 22:13 33.614838 -115.440345 91 4924ft 123kts
02-Jul-18 22:14 33.613006 -115.399268 88 5162ft 124kts
02-Jul-18 22:15 33.611877 -115.357684 90 5358ft 130kts
02-Jul-18 22:16 33.610800 -115.314439 93 5587ft 129kts
02-Jul-18 22:17 33.609649 -115.270873 94 5739ft 131kts
02-Jul-18 22:18 33.608572 -115.227440 94 5907ft 129kts
02-Jul-18 22:19 33.607514 -115.184554 94 6053ft 128kts
02-Jul-18 22:20 33.606439 -115.141425 94 6179ft 129kts
02-Jul-18 22:21 33.605341 -115.098091 94 6298ft 130kts
02-Jul-18 22:22 33.604220 -115.054643 95 6272ft 130kts
02-Jul-18 22:23 33.603498 -115.011098 88 5921ft 132kts
02-Jul-18 22:24 33.610807 -114.967492 79 5545ft 132kts
02-Jul-18 22:25 33.616288 -114.923921 89 4652ft 136kts
02-Jul-18 22:26 33.617832 -114.883645 92 3571ft 107kts
02-Jul-18 22:27 33.619419 -114.848305 91 2778ft 107kts
02-Jul-18 22:28 33.620285 -114.815586 95 2269ft 90kts
02-Jul-18 22:29 33.619257 -114.785528 101 1962ft 98kts
02-Jul-18 22:30 33.619688 -114.755177 58 1522ft 94kts
02-Jul-18 22:31 33.641466 -114.739421 37 1481ft 87kts
02-Jul-18 22:32 33.637991 -114.717567 164 782ft 69kts
02-Jul-18 22:33 33.624859 -114.717006 197 396ft 0kts
02-Jul-18 22:34 33.641883 -114.720087 145 998ft 74kts
02-Jul-18 22:35 33.624859 -114.717006 197 396ft 0kts
02-Jul-18 22:36 33.624860 -114.717006 197 396ft 0kts
02-Jul-18 22:37 33.623881 -114.716906 185 396ft 0kts
02-Jul-18 22:38 33.616837 -114.716828 188 394ft 40kts
02-Jul-18 22:39 33.614146 -114.714458 92 392ft 0kts
02-Jul-18 22:40 33.614146 -114.714458 92 392ft 0kts
02-Jul-18 22:41 33.614146 -114.714458 92 392ft 0kts
02-Jul-18 22:42 33.614146 -114.714458 92 392ft 0kts
02-Jul-18 22:43 33.614153 -114.714397 75 392ft 6kts
02-Jul-18 22:44 33.614991 -114.707453 83 394ft 22kts
02-Jul-18 22:45 33.616355 -114.721566 258 928ft 79kts
02-Jul-18 22:46 33.616138 -114.751516 258 2033ft 107kts
02-Jul-18 22:47 33.611802 -114.787176 267 2944ft 112kts

Navigation Log

Ident Type
Flight plan parsing failed, navigation log unavailable